Time;durP1;ratioP1;P1;durP2;ratioP2;P2;SDS_P1;SDS_P2;PMS_P1;PMS_P2;Temp;Humidity;BMP_temperature;BMP_pressure;BME280_temperature;BME280_humidity;BME280_pressure;Samples;Min_cycle;Max_cycle;Signal;HPM_P1;HPM_P2
2021/07/01 00:02:01;;;;;;;31.10;14.45;;;15.30;90.00;;;;;;4984293;28;20218;-83
2021/07/01 00:04:27;;;;;;;28.30;13.30;;;15.30;90.10;;;;;;5000542;28;20205;-82
2021/07/01 00:06:53;;;;;;;25.58;12.95;;;15.30;89.90;;;;;;4999680;28;20702;-83
2021/07/01 00:09:23;;;;;;;25.47;15.00;;;15.30;89.80;;;;;;4981755;28;20214;-83
2021/07/01 00:11:52;;;;;;;26.20;13.45;;;15.20;89.70;;;;;;4982266;28;20207;-83
2021/07/01 00:14:19;;;;;;;34.97;14.23;;;15.30;89.80;;;;;;4983586;28;20315;-83
2021/07/01 00:16:49;;;;;;;20.38;12.88;;;15.30;89.90;;;;;;4983345;28;20187;-84
2021/07/01 00:19:16;;;;;;;27.15;13.52;;;15.30;90.00;;;;;;4980696;28;20214;-83
2021/07/01 00:21:42;;;;;;;26.13;14.27;;;15.30;90.10;;;;;;5000449;28;20214;-84
2021/07/01 00:24:07;;;;;;;33.58;15.05;;;15.30;90.20;;;;;;4985966;28;20187;-83
2021/07/01 00:26:33;;;;;;;30.60;14.30;;;15.30;90.20;;;;;;5000765;28;20539;-83
2021/07/01 00:28:59;;;;;;;31.27;15.13;;;15.40;90.40;;;;;;5002035;28;20179;-83
2021/07/01 00:31:25;;;;;;;31.17;15.53;;;15.30;90.20;;;;;;4982580;28;20206;-83
2021/07/01 00:33:50;;;;;;;32.33;16.20;;;15.30;90.00;;;;;;4983268;28;20214;-83
2021/07/01 00:36:16;;;;;;;43.90;15.83;;;15.30;90.00;;;;;;4982828;28;20434;-84
2021/07/01 00:38:42;;;;;;;34.70;14.77;;;15.30;90.00;;;;;;4997317;28;20203;-85
2021/07/01 00:41:08;;;;;;;30.33;14.13;;;15.30;89.90;;;;;;4980333;28;20254;-84
2021/07/01 00:43:33;;;;;;;30.37;15.10;;;15.30;89.80;;;;;;4982113;28;20183;-84
2021/07/01 00:45:59;;;;;;;40.30;17.00;;;15.30;89.80;;;;;;4981686;28;20179;-84
2021/07/01 00:48:25;;;;;;;29.93;15.10;;;15.20;89.50;;;;;;4981566;28;20283;-84
2021/07/01 00:50:53;;;;;;;35.77;15.13;;;15.30;89.50;;;;;;4981078;28;20439;-84
2021/07/01 00:53:19;;;;;;;26.80;15.40;;;15.20;89.30;;;;;;4981944;28;20269;-84
2021/07/01 00:55:44;;;;;;;34.17;16.33;;;15.30;89.30;;;;;;4981575;28;20574;-84
2021/07/01 00:58:10;;;;;;;33.10;15.40;;;15.30;89.20;;;;;;4982743;28;20298;-84
2021/07/01 01:03:35;;;;;;;29.27;15.23;;;15.30;89.30;;;;;;4982923;28;20446;-84
2021/07/01 01:06:04;;;;;;;32.00;15.40;;;15.30;89.30;;;;;;4986121;28;20665;-84
2021/07/01 01:08:30;;;;;;;26.45;15.15;;;15.30;89.30;;;;;;4983737;28;20190;-84
2021/07/01 01:10:56;;;;;;;30.20;14.55;;;15.30;89.20;;;;;;4983512;28;20513;-85
2021/07/01 01:13:26;;;;;;;37.77;13.77;;;15.30;89.10;;;;;;4982258;28;20186;-85
2021/07/01 01:15:57;;;;;;;28.48;13.52;;;15.30;89.10;;;;;;4981954;28;20446;-85
2021/07/01 01:18:23;;;;;;;32.05;12.77;;;15.40;89.10;;;;;;4997447;28;20257;-84
2021/07/01 01:20:50;;;;;;;23.52;13.40;;;15.40;89.00;;;;;;4997974;28;20183;-84
2021/07/01 01:23:16;;;;;;;25.92;13.40;;;15.40;88.80;;;;;;4985690;28;20183;-83
2021/07/01 01:25:43;;;;;;;21.83;13.57;;;15.40;88.80;;;;;;4989167;28;20179;-83
2021/07/01 01:28:09;;;;;;;25.85;13.35;;;15.30;88.60;;;;;;4989012;28;20461;-83
2021/07/01 01:30:40;;;;;;;29.67;14.20;;;15.30;88.50;;;;;;5004256;28;20215;-84
2021/07/01 01:33:07;;;;;;;25.40;13.68;;;15.30;88.40;;;;;;4988157;28;20186;-83
2021/07/01 01:35:34;;;;;;;25.77;13.13;;;15.40;88.50;;;;;;5005826;28;20274;-84
2021/07/01 01:38:00;;;;;;;23.08;12.93;;;15.30;88.60;;;;;;4986472;28;20234;-84
2021/07/01 01:40:26;;;;;;;22.00;12.95;;;15.30;88.50;;;;;;4983160;28;20179;-84
2021/07/01 01:42:52;;;;;;;23.50;13.90;;;15.40;88.50;;;;;;5005257;28;20198;-84
2021/07/01 01:45:18;;;;;;;28.87;13.23;;;15.40;88.50;;;;;;4988941;28;20179;-84
2021/07/01 01:47:49;;;;;;;32.77;13.17;;;15.40;88.50;;;;;;4988424;28;20190;-84
2021/07/01 01:50:20;;;;;;;33.40;14.50;;;15.40;88.40;;;;;;5005952;28;20229;-85
2021/07/01 01:52:47;;;;;;;26.67;13.80;;;15.50;88.30;;;;;;4989048;28;20577;-84
2021/07/01 01:55:14;;;;;;;25.63;12.55;;;15.40;88.10;;;;;;4988631;28;20183;-84
2021/07/01 01:57:48;;;;;;;25.08;11.93;;;15.40;88.10;;;;;;4988212;28;20642;-84
2021/07/01 02:00:17;;;;;;;21.10;12.02;;;15.50;87.90;;;;;;4985981;28;20162;-84
2021/07/01 02:02:43;;;;;;;36.13;12.60;;;15.50;87.70;;;;;;4972195;28;20247;-83
2021/07/01 02:05:10;;;;;;;19.25;12.02;;;15.30;87.40;;;;;;4989150;28;20183;-83
2021/07/01 02:07:37;;;;;;;26.45;12.02;;;15.30;87.30;;;;;;4987730;28;20186;-83
2021/07/01 02:10:11;;;;;;;26.42;12.20;;;15.30;87.30;;;;;;4989426;28;20214;-83
2021/07/01 02:12:37;;;;;;;30.25;13.18;;;15.30;87.40;;;;;;4987945;28;20202;-84
2021/07/01 02:15:08;;;;;;;27.83;12.93;;;15.40;87.50;;;;;;4986638;28;20179;-84
2021/07/01 02:17:35;;;;;;;21.25;11.90;;;15.40;87.60;;;;;;4985259;28;20203;-84
2021/07/01 02:20:06;;;;;;;26.48;14.63;;;15.30;87.50;;;;;;4985141;28;20175;-84
2021/07/01 02:22:32;;;;;;;28.73;11.85;;;15.30;87.50;;;;;;5001235;28;20203;-84
2021/07/01 02:24:58;;;;;;;24.33;12.43;;;15.40;87.50;;;;;;4986081;28;20171;-84
2021/07/01 02:27:24;;;;;;;25.52;13.38;;;15.30;87.40;;;;;;4985070;28;20187;-84
2021/07/01 02:29:50;;;;;;;20.73;10.60;;;15.30;87.40;;;;;;5003174;28;20267;-84
2021/07/01 02:32:16;;;;;;;23.10;11.60;;;15.30;87.40;;;;;;4984894;28;20437;-84
2021/07/01 02:34:41;;;;;;;25.17;13.17;;;15.40;87.30;;;;;;4988086;28;20246;-84
2021/07/01 02:37:08;;;;;;;28.87;11.70;;;15.40;87.30;;;;;;5004595;28;20414;-84
2021/07/01 02:39:34;;;;;;;29.85;12.48;;;15.30;87.20;;;;;;5003707;28;20254;-84
2021/07/01 02:42:00;;;;;;;24.50;12.60;;;15.40;87.30;;;;;;5002611;28;20199;-84
2021/07/01 02:44:26;;;;;;;20.67;12.50;;;15.40;87.10;;;;;;5003392;28;20183;-84
2021/07/01 02:46:52;;;;;;;25.43;11.70;;;15.40;87.10;;;;;;4986649;28;20183;-84
2021/07/01 02:49:17;;;;;;;30.67;12.65;;;15.40;87.10;;;;;;4987188;28;20517;-85
2021/07/01 02:51:43;;;;;;;20.93;10.87;;;15.30;87.20;;;;;;4985868;28;20203;-84
2021/07/01 02:54:09;;;;;;;22.63;12.07;;;15.30;86.80;;;;;;5002289;28;20272;-84
2021/07/01 02:56:40;;;;;;;22.57;10.70;;;15.30;86.50;;;;;;5003794;28;20277;-84
2021/07/01 02:59:13;;;;;;;17.45;9.88;;;15.30;86.90;;;;;;5000663;28;20222;-83
2021/07/01 03:01:39;;;;;;;20.08;10.70;;;15.30;86.10;;;;;;4983472;28;20218;-83
2021/07/01 03:04:05;;;;;;;27.37;12.43;;;15.20;85.90;;;;;;5004918;28;20198;-84
2021/07/01 03:06:30;;;;;;;27.43;12.50;;;15.20;86.00;;;;;;4991966;28;20182;-84
2021/07/01 03:08:58;;;;;;;18.90;11.40;;;15.30;86.10;;;;;;5007059;28;20317;-84
2021/07/01 03:11:25;;;;;;;18.80;11.70;;;15.30;86.00;;;;;;5003655;28;20203;-84
2021/07/01 03:13:51;;;;;;;27.98;10.65;;;15.40;85.90;;;;;;4987608;28;20183;-84
2021/07/01 03:16:19;;;;;;;19.63;10.88;;;15.30;86.10;;;;;;5004088;28;20175;-84
2021/07/01 03:18:46;;;;;;;21.88;10.23;;;15.40;86.00;;;;;;4987667;28;20686;-84
2021/07/01 03:21:12;;;;;;;22.27;10.77;;;15.30;86.00;;;;;;4988661;28;20203;-84
2021/07/01 03:23:38;;;;;;;25.90;11.83;;;15.30;86.10;;;;;;4987921;28;20179;-84
2021/07/01 03:26:04;;;;;;;23.90;11.00;;;15.30;86.00;;;;;;4986767;28;20237;-84
2021/07/01 03:28:30;;;;;;;23.73;11.13;;;15.40;85.90;;;;;;5004750;28;20175;-84
2021/07/01 03:30:55;;;;;;;14.10;9.30;;;15.40;85.70;;;;;;4986723;28;20473;-84
2021/07/01 03:33:21;;;;;;;26.43;10.50;;;15.30;85.60;;;;;;4986987;28;20796;-84
2021/07/01 03:35:47;;;;;;;27.57;11.33;;;15.30;85.50;;;;;;4986770;28;20425;-84
2021/07/01 03:38:13;;;;;;;20.53;10.00;;;15.30;85.50;;;;;;5005025;28;20458;-84
2021/07/01 03:40:39;;;;;;;21.73;10.40;;;15.30;85.40;;;;;;4987701;28;20441;-83
2021/07/01 03:43:04;;;;;;;16.77;7.60;;;15.30;85.30;;;;;;4988768;28;20226;-83
2021/07/01 03:45:30;;;;;;;15.00;8.13;;;15.20;84.90;;;;;;4986655;28;20542;-84
2021/07/01 03:47:56;;;;;;;15.73;9.30;;;15.30;84.90;;;;;;4986691;28;20213;-84
2021/07/01 03:50:22;;;;;;;15.07;8.77;;;15.30;84.70;;;;;;4987239;28;20183;-83
2021/07/01 03:52:47;;;;;;;17.33;9.20;;;15.20;84.60;;;;;;5005792;28;20466;-83
2021/07/01 03:55:13;;;;;;;22.03;8.97;;;15.30;84.70;;;;;;5005179;28;20175;-83
2021/07/01 03:57:39;;;;;;;29.70;10.50;;;15.30;84.70;;;;;;5006810;28;20203;-83
2021/07/01 04:00:07;;;;;;;25.53;9.53;;;15.30;84.50;;;;;;4992086;28;20190;-83
2021/07/01 04:02:33;;;;;;;15.65;9.43;;;15.30;84.20;;;;;;4988218;28;20207;-83
2021/07/01 04:04:59;;;;;;;19.90;12.33;;;15.30;84.40;;;;;;4987981;28;20175;-84
2021/07/01 04:07:24;;;;;;;27.70;11.50;;;15.30;84.60;;;;;;4987598;28;20457;-83
2021/07/01 04:09:50;;;;;;;15.70;9.63;;;15.30;84.80;;;;;;5005343;28;20631;-83
2021/07/01 04:12:16;;;;;;;24.13;10.47;;;15.40;84.80;;;;;;5005376;28;20274;-83
2021/07/01 04:14:42;;;;;;;16.73;9.47;;;15.30;84.60;;;;;;4987748;28;20183;-83
2021/07/01 04:17:07;;;;;;;22.50;10.97;;;15.30;84.80;;;;;;5004226;28;20546;-83
2021/07/01 04:19:33;;;;;;;20.17;9.87;;;15.40;84.70;;;;;;4988053;28;20186;-83
2021/07/01 04:21:59;;;;;;;22.47;8.70;;;15.40;84.50;;;;;;5004346;28;20438;-83
2021/07/01 04:24:25;;;;;;;19.40;8.52;;;15.40;84.20;;;;;;5003160;28;20180;-83
2021/07/01 04:26:51;;;;;;;12.63;8.07;;;15.40;83.90;;;;;;5005685;28;20197;-83
2021/07/01 04:29:19;;;;;;;16.70;8.20;;;15.30;83.60;;;;;;5004552;28;20182;-84
2021/07/01 04:31:45;;;;;;;16.75;7.85;;;15.30;83.20;;;;;;4986606;28;20258;-83
2021/07/01 04:34:11;;;;;;;15.07;8.60;;;15.40;83.20;;;;;;5005918;28;20563;-83
2021/07/01 04:36:36;;;;;;;17.23;7.73;;;15.30;83.20;;;;;;4989695;28;20183;-83
2021/07/01 04:39:03;;;;;;;14.77;7.27;;;15.40;83.20;;;;;;4989434;28;20230;-83
2021/07/01 04:41:28;;;;;;;17.33;7.43;;;15.40;83.10;;;;;;4988747;28;20245;-83
2021/07/01 04:43:54;;;;;;;11.10;6.40;;;15.40;82.80;;;;;;4989508;28;20594;-82
2021/07/01 04:46:20;;;;;;;15.77;7.40;;;15.40;82.80;;;;;;4988955;28;20175;-83
2021/07/01 04:48:46;;;;;;;14.53;6.33;;;15.40;82.90;;;;;;4990082;28;20180;-83
2021/07/01 04:51:12;;;;;;;10.60;5.70;;;15.40;83.00;;;;;;5004012;28;20222;-83
2021/07/01 04:53:39;;;;;;;16.65;7.32;;;15.40;83.00;;;;;;5005236;28;20418;-83
2021/07/01 04:56:06;;;;;;;12.48;6.68;;;15.40;82.90;;;;;;5003074;28;20179;-83
2021/07/01 04:58:32;;;;;;;16.38;6.47;;;15.40;82.60;;;;;;5001638;28;20207;-83
2021/07/01 05:00:57;;;;;;;14.67;5.90;;;15.50;82.80;;;;;;5000530;28;20199;-84
2021/07/01 05:03:23;;;;;;;16.03;6.97;;;15.50;82.60;;;;;;5002743;28;20441;-84
2021/07/01 05:05:49;;;;;;;13.40;5.90;;;15.40;82.10;;;;;;5002025;28;20259;-83
2021/07/01 05:08:16;;;;;;;8.60;6.30;;;15.40;82.00;;;;;;5002430;28;20189;-83
2021/07/01 05:10:42;;;;;;;23.83;6.95;;;15.40;82.20;;;;;;5017347;28;20193;-84
2021/07/01 05:13:07;;;;;;;18.98;7.30;;;15.40;82.50;;;;;;5001456;28;20266;-84
2021/07/01 05:15:33;;;;;;;10.70;5.90;;;15.40;82.60;;;;;;5001944;28;20191;-84
2021/07/01 05:18:00;;;;;;;13.93;7.33;;;15.50;82.90;;;;;;4997746;28;20673;-84
2021/07/01 05:20:26;;;;;;;18.10;7.32;;;15.60;82.90;;;;;;4999000;28;20419;-84
2021/07/01 05:22:52;;;;;;;26.73;7.50;;;15.60;83.50;;;;;;5000793;28;20207;-84
2021/07/01 05:25:17;;;;;;;16.13;8.77;;;15.70;82.90;;;;;;4997450;28;20274;-85
2021/07/01 05:27:43;;;;;;;9.03;6.43;;;15.70;82.10;;;;;;5000348;28;20654;-84
2021/07/01 05:30:09;;;;;;;22.13;7.73;;;15.70;82.30;;;;;;4986583;28;20266;-84
2021/07/01 05:32:35;;;;;;;20.15;7.03;;;15.70;82.50;;;;;;4985988;28;20226;-84
2021/07/01 05:35:01;;;;;;;17.53;7.27;;;15.70;82.50;;;;;;4983656;28;20195;-85
2021/07/01 05:37:26;;;;;;;17.00;6.70;;;15.70;82.50;;;;;;5001555;28;20201;-84
2021/07/01 05:39:52;;;;;;;18.90;7.50;;;15.80;82.40;;;;;;4989544;28;20228;-85
2021/07/01 05:42:18;;;;;;;12.07;5.90;;;15.90;82.50;;;;;;5006533;28;20191;-84
2021/07/01 05:44:44;;;;;;;15.70;8.53;;;15.90;82.50;;;;;;5021091;28;20679;-84
2021/07/01 05:47:09;;;;;;;19.67;8.10;;;15.90;82.30;;;;;;5004048;28;20174;-85
2021/07/01 05:49:35;;;;;;;24.30;7.80;;;15.90;81.80;;;;;;5000071;28;20237;-84
2021/07/01 05:52:04;;;;;;;16.87;6.90;;;15.90;81.70;;;;;;5014930;28;20717;-84
2021/07/01 05:54:34;;;;;;;13.32;7.20;;;15.90;81.80;;;;;;4999079;28;20183;-85
2021/07/01 05:57:00;;;;;;;17.30;7.95;;;16.00;81.60;;;;;;4998903;28;20646;-84
2021/07/01 05:59:26;;;;;;;15.70;6.90;;;16.00;81.30;;;;;;4998933;28;20210;-85
2021/07/01 06:01:51;;;;;;;16.87;7.97;;;15.90;81.30;;;;;;4999716;28;20245;-85
2021/07/01 06:04:17;;;;;;;10.57;6.67;;;15.90;81.00;;;;;;5000563;28;20195;-85
2021/07/01 06:06:49;;;;;;;18.53;7.17;;;15.90;81.20;;;;;;4988514;28;20426;-85
2021/07/01 06:09:16;;;;;;;19.92;7.35;;;15.90;81.50;;;;;;4989720;28;20411;-85
2021/07/01 06:11:42;;;;;;;12.07;6.90;;;16.00;81.50;;;;;;4988025;28;20214;-84
2021/07/01 06:14:08;;;;;;;15.48;7.10;;;16.00;81.30;;;;;;5006406;28;20190;-83
2021/07/01 06:16:35;;;;;;;14.30;7.30;;;15.90;80.90;;;;;;5016560;28;20183;-85
2021/07/01 06:19:04;;;;;;;17.13;6.30;;;16.00;81.00;;;;;;5010781;28;20212;-83
2021/07/01 06:21:30;;;;;;;18.90;6.78;;;16.00;81.00;;;;;;5014004;28;20214;-84
2021/07/01 06:23:57;;;;;;;16.00;7.70;;;15.90;81.00;;;;;;4988814;28;20225;-83
2021/07/01 06:26:28;;;;;;;21.10;6.80;;;15.80;80.90;;;;;;4989163;28;20588;-84
2021/07/01 06:28:55;;;;;;;21.38;8.13;;;15.80;81.00;;;;;;4990989;28;20266;-84
2021/07/01 06:31:23;;;;;;;12.65;6.43;;;15.80;81.00;;;;;;4989024;28;20488;-84
2021/07/01 06:33:49;;;;;;;23.60;6.50;;;15.80;81.30;;;;;;5008794;28;20242;-82
2021/07/01 06:36:18;;;;;;;12.25;6.95;;;15.90;81.60;;;;;;4998646;28;20183;-84
2021/07/01 06:38:49;;;;;;;16.65;6.97;;;15.90;81.60;;;;;;5013005;28;20677;-83
2021/07/01 06:41:17;;;;;;;15.10;7.10;;;16.00;80.50;;;;;;4992699;28;20230;-84
2021/07/01 06:43:47;;;;;;;17.75;8.00;;;16.00;80.10;;;;;;4997309;28;20178;-84
2021/07/01 06:46:14;;;;;;;10.07;6.05;;;15.90;80.10;;;;;;4999169;28;20251;-84
2021/07/01 06:48:41;;;;;;;16.33;5.97;;;15.80;80.30;;;;;;5012811;28;20176;-84
2021/07/01 06:51:07;;;;;;;17.15;7.28;;;15.90;80.70;;;;;;4993716;28;20214;-84
2021/07/01 06:53:48;;;;;;;11.75;6.78;;;15.90;80.70;;;;;;4991829;28;20210;-85
2021/07/01 06:56:14;;;;;;;15.75;6.95;;;15.80;80.40;;;;;;4990727;28;20266;-86
2021/07/01 06:58:44;;;;;;;18.23;6.30;;;15.90;80.20;;;;;;5005138;28;20227;-85
2021/07/01 07:01:10;;;;;;;11.40;5.50;;;15.80;79.30;;;;;;4999546;28;20468;-85
2021/07/01 07:03:37;;;;;;;15.25;5.60;;;15.80;79.40;;;;;;4982983;28;20261;-85
2021/07/01 07:06:03;;;;;;;18.15;5.60;;;15.80;79.20;;;;;;5000587;28;20175;-85
2021/07/01 07:08:32;;;;;;;12.90;6.22;;;15.90;79.20;;;;;;5002182;28;20706;-84
2021/07/01 07:10:59;;;;;;;17.17;8.35;;;16.00;78.80;;;;;;4985166;28;20196;-85
2021/07/01 07:13:26;;;;;;;13.60;6.60;;;16.00;78.70;;;;;;4983971;28;20201;-86
2021/07/01 07:16:00;;;;;;;18.77;6.47;;;16.00;78.50;;;;;;4984462;28;20187;-85
2021/07/01 07:18:27;;;;;;;13.48;6.90;;;16.10;78.60;;;;;;4984901;28;20234;-84
2021/07/01 07:20:56;;;;;;;17.65;6.15;;;16.10;78.60;;;;;;5002194;28;20214;-84
2021/07/01 07:23:41;;;;;;;10.77;5.75;;;16.20;78.30;;;;;;4986352;28;20175;-84
2021/07/01 07:26:24;;;;;;;12.40;5.80;;;16.20;77.90;;;;;;4985239;28;20179;-84
2021/07/01 07:28:53;;;;;;;17.08;5.90;;;16.30;77.50;;;;;;4986160;28;20179;-85
2021/07/01 07:31:27;;;;;;;11.50;4.85;;;16.30;77.10;;;;;;4985459;28;20266;-85
2021/07/01 07:33:57;;;;;;;13.38;5.93;;;16.30;77.10;;;;;;4983800;28;20174;-86
2021/07/01 07:36:25;;;;;;;12.82;5.80;;;16.40;76.60;;;;;;4982742;28;20681;-86
2021/07/01 07:38:52;;;;;;;15.15;6.88;;;16.50;77.10;;;;;;5001476;28;20202;-85
2021/07/01 07:41:19;;;;;;;10.20;5.22;;;16.50;77.00;;;;;;4983229;28;20199;-85
2021/07/01 07:43:46;;;;;;;14.95;6.05;;;16.40;76.80;;;;;;4983350;28;20186;-85
2021/07/01 07:46:12;;;;;;;26.05;6.90;;;16.30;76.40;;;;;;4984069;28;20266;-85
2021/07/01 07:48:40;;;;;;;15.73;5.55;;;16.30;76.60;;;;;;4983018;28;20191;-85
2021/07/01 07:51:08;;;;;;;19.35;6.78;;;16.30;76.90;;;;;;4982802;28;20575;-85
2021/07/01 07:53:35;;;;;;;26.17;7.15;;;16.40;77.20;;;;;;4998290;28;20210;-85
2021/07/01 07:56:09;;;;;;;10.38;7.05;;;16.40;77.00;;;;;;4986603;28;20182;-84
2021/07/01 07:58:40;;;;;;;15.82;6.75;;;16.30;76.90;;;;;;4986176;28;20684;-84
2021/07/01 08:01:09;;;;;;;16.17;7.38;;;16.40;77.20;;;;;;4985558;28;20203;-84
2021/07/01 08:03:39;;;;;;;11.82;7.07;;;16.60;77.50;;;;;;4986269;28;20263;-84
2021/07/01 08:06:06;;;;;;;15.95;6.43;;;16.60;78.10;;;;;;4984276;28;20251;-85
2021/07/01 08:08:35;;;;;;;13.65;8.48;;;16.60;78.60;;;;;;4998942;28;20191;-85
2021/07/01 08:11:05;;;;;;;17.85;7.57;;;16.60;78.70;;;;;;4996419;28;20207;-86
2021/07/01 08:13:32;;;;;;;11.52;6.00;;;16.60;79.10;;;;;;4983368;28;20609;-85
2021/07/01 08:15:58;;;;;;;11.52;6.32;;;16.70;78.50;;;;;;4984612;28;20206;-84
2021/07/01 08:18:29;;;;;;;10.02;5.57;;;16.70;78.10;;;;;;5000005;28;20198;-84
2021/07/01 08:20:55;;;;;;;11.38;6.50;;;16.50;77.50;;;;;;4982097;28;20701;-84
2021/07/01 08:23:21;;;;;;;17.03;6.17;;;16.70;77.20;;;;;;4981163;28;20187;-84
2021/07/01 08:25:48;;;;;;;13.30;6.90;;;16.50;76.90;;;;;;4980813;28;20954;-84
2021/07/01 08:28:19;;;;;;;9.43;5.97;;;16.60;77.20;;;;;;4997190;28;20509;-84
2021/07/01 08:30:45;;;;;;;16.05;6.60;;;16.70;77.30;;;;;;4980413;28;20201;-85
2021/07/01 08:33:11;;;;;;;16.50;6.07;;;16.80;76.90;;;;;;5000858;28;20651;-84
2021/07/01 08:35:38;;;;;;;15.57;6.72;;;16.80;76.40;;;;;;4986192;28;20482;-84
2021/07/01 08:38:04;;;;;;;9.90;5.22;;;16.80;75.60;;;;;;5002779;28;20222;-85
2021/07/01 08:40:36;;;;;;;10.75;5.43;;;16.90;75.40;;;;;;5002302;28;20638;-85
2021/07/01 08:43:05;;;;;;;12.48;5.55;;;17.00;75.40;;;;;;5001960;28;20191;-84
2021/07/01 08:45:56;;;;;;;9.15;5.35;;;17.00;75.00;;;;;;4986481;28;20202;-84
2021/07/01 08:48:24;;;;;;;9.25;4.85;;;16.90;74.70;;;;;;4984891;28;20187;-84
2021/07/01 08:50:57;;;;;;;13.40;5.03;;;17.00;73.90;;;;;;4985857;28;20187;-84
2021/07/01 08:53:42;;;;;;;14.05;5.78;;;16.80;73.50;;;;;;4985818;28;20195;-85
2021/07/01 08:56:12;;;;;;;11.23;5.70;;;16.80;73.60;;;;;;4986257;28;20189;-84
2021/07/01 08:58:46;;;;;;;10.30;5.25;;;16.80;73.80;;;;;;4987508;28;20230;-84
2021/07/01 09:01:12;;;;;;;13.65;6.30;;;16.70;73.30;;;;;;5003282;28;20190;-84
2021/07/01 09:03:42;;;;;;;14.98;4.85;;;16.70;73.10;;;;;;4986296;28;20631;-85
2021/07/01 09:06:09;;;;;;;11.63;5.20;;;16.70;73.20;;;;;;4985836;28;20180;-84
2021/07/01 09:08:42;;;;;;;8.32;5.07;;;16.60;73.00;;;;;;4985895;28;20218;-84
2021/07/01 09:11:12;;;;;;;13.52;5.35;;;16.60;72.20;;;;;;4984423;28;20237;-85
2021/07/01 09:13:45;;;;;;;15.80;5.28;;;16.60;73.40;;;;;;4983861;28;20249;-85
2021/07/01 09:16:14;;;;;;;16.90;5.97;;;16.70;73.20;;;;;;4984466;28;20630;-84
2021/07/01 09:18:41;;;;;;;12.45;5.82;;;16.80;73.20;;;;;;4984844;28;20203;-85
2021/07/01 09:21:09;;;;;;;8.10;5.45;;;16.80;73.20;;;;;;4983022;28;20266;-85
2021/07/01 09:23:41;;;;;;;17.33;6.05;;;16.80;73.30;;;;;;5002043;28;20179;-85
2021/07/01 09:26:11;;;;;;;12.50;5.22;;;16.80;72.80;;;;;;4983411;28;20600;-85
2021/07/01 09:28:37;;;;;;;16.85;5.78;;;16.80;73.20;;;;;;4999861;28;20262;-84
2021/07/01 09:31:03;;;;;;;15.50;5.90;;;16.70;72.90;;;;;;4987432;28;20226;-84
2021/07/01 09:33:30;;;;;;;14.38;5.25;;;16.70;73.00;;;;;;5003386;28;20422;-83
2021/07/01 09:35:57;;;;;;;14.80;5.30;;;16.70;73.00;;;;;;5004906;28;20633;-83
2021/07/01 09:38:25;;;;;;;10.25;5.25;;;16.80;72.80;;;;;;5021999;28;20740;-83
2021/07/01 09:40:51;;;;;;;9.90;4.80;;;16.80;72.40;;;;;;5005965;28;20225;-85
2021/07/01 09:43:22;;;;;;;22.53;6.13;;;16.90;72.10;;;;;;5006800;28;20178;-84
2021/07/01 09:45:51;;;;;;;14.15;5.95;;;17.10;72.40;;;;;;4986689;28;20425;-84
2021/07/01 09:48:22;;;;;;;12.38;5.47;;;17.40;72.10;;;;;;5003951;28;20202;-84
2021/07/01 09:50:49;;;;;;;12.30;5.15;;;17.60;71.20;;;;;;5004136;28;20202;-84
2021/07/01 09:53:26;;;;;;;14.40;6.10;;;17.60;70.60;;;;;;4987959;28;20190;-85
2021/07/01 09:55:53;;;;;;;9.52;5.15;;;17.70;70.40;;;;;;5006476;28;20187;-83
2021/07/01 09:58:20;;;;;;;9.35;4.82;;;17.80;69.60;;;;;;4988419;28;20342;-84
2021/07/01 10:00:52;;;;;;;9.20;5.40;;;17.80;69.30;;;;;;4986702;28;20183;-83
2021/07/01 10:03:18;;;;;;;11.13;5.00;;;17.80;69.30;;;;;;4987322;28;20218;-84
2021/07/01 10:05:46;;;;;;;13.40;5.88;;;17.90;69.40;;;;;;5005455;28;20171;-84
2021/07/01 10:08:12;;;;;;;13.73;5.70;;;18.00;68.80;;;;;;5006907;28;20179;-83
2021/07/01 10:10:50;;;;;;;9.13;5.13;;;17.90;68.70;;;;;;4987393;28;20597;-84
2021/07/01 10:13:17;;;;;;;14.38;5.38;;;17.90;68.20;;;;;;4989036;28;20230;-84
2021/07/01 10:15:46;;;;;;;10.57;4.82;;;17.90;68.00;;;;;;5004795;28;20207;-84
2021/07/01 10:18:15;;;;;;;12.55;5.25;;;17.90;67.70;;;;;;4987154;28;20210;-84
2021/07/01 10:20:51;;;;;;;11.48;5.50;;;17.90;67.40;;;;;;4985328;28;20175;-84
2021/07/01 10:23:19;;;;;;;14.13;4.78;;;17.90;67.90;;;;;;4987787;28;20186;-83
2021/07/01 10:25:45;;;;;;;12.27;4.72;;;18.20;68.70;;;;;;5004704;28;20167;-83
2021/07/01 10:28:14;;;;;;;13.93;5.65;;;18.20;67.60;;;;;;4987478;28;20309;-83
2021/07/01 10:30:42;;;;;;;7.40;4.45;;;18.20;67.40;;;;;;5004506;28;20179;-84
2021/07/01 10:33:25;;;;;;;12.68;4.97;;;18.30;66.50;;;;;;4986894;28;20183;-84
2021/07/01 10:35:52;;;;;;;11.93;5.32;;;18.40;67.30;;;;;;4987812;28;20187;-84
2021/07/01 10:38:19;;;;;;;10.90;4.40;;;18.50;66.50;;;;;;5004321;28;20218;-84
2021/07/01 10:40:51;;;;;;;9.38;4.68;;;18.60;66.20;;;;;;5003150;28;20171;-84
2021/07/01 10:43:18;;;;;;;13.90;4.70;;;18.70;66.00;;;;;;4986387;28;20174;-84
2021/07/01 10:45:51;;;;;;;10.57;4.25;;;18.80;65.10;;;;;;4985103;28;20273;-84
2021/07/01 10:48:20;;;;;;;10.65;4.22;;;18.90;64.90;;;;;;5002206;28;20168;-84
2021/07/01 10:50:47;;;;;;;18.52;4.07;;;18.90;64.20;;;;;;4986657;28;20179;-84
2021/07/01 10:53:40;;;;;;;12.07;4.78;;;18.80;64.60;;;;;;4988965;28;20175;-83
2021/07/01 10:56:23;;;;;;;13.38;4.32;;;18.90;64.60;;;;;;4957484;28;20183;-84
2021/07/01 10:58:57;;;;;;;9.93;4.28;;;18.80;63.80;;;;;;4991702;28;20278;-84
2021/07/01 11:01:30;;;;;;;14.48;4.80;;;18.80;63.50;;;;;;5006792;28;20206;-84
2021/07/01 11:04:23;;;;;;;11.88;4.85;;;18.90;64.00;;;;;;4989297;28;20183;-84
2021/07/01 11:07:00;;;;;;;11.15;4.55;;;19.30;63.90;;;;;;4988135;28;20179;-84
2021/07/01 11:09:43;;;;;;;12.07;4.18;;;19.20;62.90;;;;;;4990400;28;20258;-84
2021/07/01 11:12:11;;;;;;;16.85;5.22;;;19.30;63.00;;;;;;4990441;28;20234;-84
2021/07/01 11:14:47;;;;;;;9.68;5.40;;;19.20;62.40;;;;;;4989942;28;20221;-84
2021/07/01 11:17:15;;;;;;;12.63;5.45;;;19.30;63.00;;;;;;5008179;28;20178;-84
2021/07/01 11:19:43;;;;;;;8.15;4.50;;;19.20;62.10;;;;;;4990897;28;20207;-84
2021/07/01 11:22:10;;;;;;;12.95;5.35;;;19.20;63.80;;;;;;5007929;28;20215;-85
2021/07/01 11:24:43;;;;;;;10.35;4.95;;;19.40;63.40;;;;;;4991771;28;20179;-84
2021/07/01 11:27:10;;;;;;;13.48;5.30;;;19.60;64.00;;;;;;4993170;28;20186;-84
2021/07/01 11:29:41;;;;;;;14.25;5.10;;;19.60;61.90;;;;;;4993906;28;20219;-84
2021/07/01 11:32:16;;;;;;;13.07;5.57;;;19.50;62.10;;;;;;4994557;28;20563;-84
2021/07/01 11:34:44;;;;;;;13.48;5.13;;;19.30;62.30;;;;;;4990805;28;20187;-84
2021/07/01 11:37:10;;;;;;;10.65;5.47;;;19.30;62.40;;;;;;4990021;28;20178;-84
2021/07/01 11:39:36;;;;;;;9.10;4.45;;;19.40;62.70;;;;;;5007618;28;20213;-84
2021/07/01 11:42:04;;;;;;;14.18;5.30;;;19.40;63.30;;;;;;4989049;28;20215;-84
2021/07/01 11:44:36;;;;;;;13.30;5.30;;;19.20;62.50;;;;;;5006317;28;20167;-84
2021/07/01 11:47:03;;;;;;;6.78;4.40;;;19.20;62.20;;;;;;4988732;28;20163;-84
2021/07/01 11:49:31;;;;;;;12.00;5.45;;;19.30;63.00;;;;;;4995837;28;20187;-84
2021/07/01 11:51:59;;;;;;;12.93;4.95;;;19.50;62.70;;;;;;5004358;28;20295;-84
2021/07/01 11:54:26;;;;;;;12.88;3.90;;;19.60;62.70;;;;;;5021318;28;20619;-84
2021/07/01 11:57:00;;;;;;;13.02;5.05;;;19.80;60.70;;;;;;5005129;28;20179;-85
2021/07/01 11:59:27;;;;;;;7.43;4.60;;;19.80;61.20;;;;;;5005248;28;20215;-84
2021/07/01 12:01:54;;;;;;;11.50;4.50;;;19.90;61.20;;;;;;5003381;28;20202;-84
2021/07/01 12:04:35;;;;;;;10.05;4.00;;;20.10;61.30;;;;;;5003530;28;20179;-84
2021/07/01 12:07:20;;;;;;;8.55;4.30;;;20.20;60.50;;;;;;5003992;28;20254;-84
2021/07/01 12:09:46;;;;;;;9.65;4.00;;;20.30;60.20;;;;;;5003916;28;20302;-84
2021/07/01 12:12:30;;;;;;;8.30;4.50;;;20.30;59.60;;;;;;5004271;28;20205;-84
2021/07/01 12:15:09;;;;;;;9.60;5.30;;;20.20;59.50;;;;;;5021902;28;20183;-84
2021/07/01 12:18:02;;;;;;;9.73;4.90;;;20.20;59.90;;;;;;5006609;28;20183;-84
2021/07/01 12:20:41;;;;;;;14.43;5.63;;;20.30;59.30;;;;;;5004621;28;20505;-84
2021/07/01 12:23:13;;;;;;;16.13;5.45;;;20.20;58.50;;;;;;5004507;28;20639;-84
2021/07/01 12:25:39;;;;;;;8.45;4.72;;;20.00;59.10;;;;;;5004155;28;20179;-84
2021/07/01 12:28:07;;;;;;;10.00;4.77;;;20.10;60.20;;;;;;5004610;28;20238;-84
2021/07/01 12:30:56;;;;;;;12.13;4.72;;;20.10;60.40;;;;;;5004943;28;20187;-84
2021/07/01 12:33:33;;;;;;;13.00;4.88;;;20.00;60.60;;;;;;4987718;28;20549;-85
2021/07/01 12:36:21;;;;;;;14.32;4.50;;;19.80;60.80;;;;;;4987580;28;20210;-84
2021/07/01 12:39:10;;;;;;;8.65;4.00;;;19.70;60.20;;;;;;4987611;28;20242;-84
2021/07/01 12:41:38;;;;;;;6.93;4.55;;;19.70;61.10;;;;;;5004412;28;20198;-85
2021/07/01 12:44:06;;;;;;;11.65;4.85;;;19.60;60.90;;;;;;4988708;28;20650;-84
2021/07/01 12:46:50;;;;;;;17.75;5.78;;;19.40;61.10;;;;;;5005319;28;20191;-84